首页
METAR-TAF:

METAR-TAF

机场 :

勒芒, 法国

纬度: 47-56N, 经度: 000-12E, 海拔: 59米

当前天气观测

该预报发布于27分钟前的10:30 UTC
风速11节,风向东转东北,在北转东北之间变化
温度 24°C
湿度 34%
气压 1034 hPa
能见度10公里或以上
1500米以下无云,无积雨云

METAR: LFRM 261030Z AUTO 07011KT 030V100 CAVOK 24/07 Q1034

时间: 12:57 (10:57 UTC)


TAF: 丢失

超过4000个机场的气象观测和天气预报(METAR&TAF报告)。

可查询的气象台以黄色和红色小点在地图上表示。

将鼠标移到小点上方,可查看气象台名称。

然后点击查看天气观测和预报。

如需切换地图:点击带黑十字的绿色按钮放大地图;点击带横线的绿色按钮缩小地图;或者点击绿色箭头查看邻近地区的地图。


METAR-TAF: